createdAt,value
2023-04-26T00:00:01.710Z,14210.0713
2023-04-26T00:01:09.811Z,14212.2139
2023-04-26T00:02:17.889Z,14212.4287
2023-04-26T00:03:25.823Z,14210.9287
2023-04-26T00:04:33.979Z,14210.7861
2023-04-26T00:05:41.994Z,14213.7139
2023-04-26T00:06:50.133Z,14213.0713
2023-04-26T00:07:58.105Z,14208.5000
2023-04-26T00:09:06.145Z,14209.7139
2023-04-26T00:10:14.167Z,14209.5713
2023-04-26T00:11:22.267Z,14207.5000
2023-04-26T00:12:30.327Z,14203.2861
2023-04-26T00:13:38.476Z,14200.6426
2023-04-26T00:14:46.478Z,14198.5713
2023-04-26T00:15:54.471Z,14194.9287
2023-04-26T00:17:02.409Z,14193.4287
2023-04-26T00:18:10.554Z,14192.3574
2023-04-26T00:19:18.514Z,14188.5000
2023-04-26T00:20:26.764Z,14188.3574
2023-04-26T00:21:34.739Z,14192.6426
2023-04-26T00:22:42.968Z,14191.0000
2023-04-26T00:23:50.871Z,14188.7139
2023-04-26T00:24:58.913Z,14188.2861
2023-04-26T00:26:07.035Z,14186.2861
2023-04-26T00:27:15.013Z,14185.9287
2023-04-26T00:28:23.102Z,14185.7861
2023-04-26T00:29:31.274Z,14184.7139
2023-04-26T00:30:39.333Z,14183.0713
2023-04-26T00:31:47.265Z,14179.7139
2023-04-26T00:32:55.311Z,14180.4287
2023-04-26T00:34:03.350Z,14177.2139
2023-04-26T00:35:11.464Z,14176.0000
2023-04-26T00:36:19.614Z,14177.4287
2023-04-26T00:37:27.597Z,14177.5000
2023-04-26T00:38:35.762Z,14176.7139
2023-04-26T00:39:43.715Z,14178.3574
2023-04-26T00:40:51.787Z,14181.2139
2023-04-26T00:41:59.837Z,14180.6426
2023-04-26T00:43:07.970Z,14180.3574
2023-04-26T00:44:15.927Z,14181.6426
2023-04-26T00:45:24.019Z,14183.5713
2023-04-26T00:46:31.925Z,14182.8574
2023-04-26T00:47:40.032Z,14183.2139
2023-04-26T00:48:48.066Z,14179.0713
2023-04-26T00:49:56.251Z,14182.4287
2023-04-26T00:51:04.276Z,14182.0000
2023-04-26T00:52:12.344Z,14184.2139
2023-04-26T00:53:20.389Z,14185.0713
2023-04-26T00:54:28.679Z,14188.8574
2023-04-26T00:55:36.769Z,14186.4287
2023-04-26T00:56:44.538Z,14188.8574
2023-04-26T00:57:52.608Z,14189.9287
2023-04-26T00:59:00.683Z,14187.2139
2023-04-26T01:00:08.777Z,14187.5713
2023-04-26T01:01:16.651Z,14188.7139
2023-04-26T01:02:24.805Z,14186.5000
2023-04-26T01:03:32.959Z,14189.4287
2023-04-26T01:04:41.041Z,14187.7139
2023-04-26T01:05:49.066Z,14186.6426
2023-04-26T01:06:57.106Z,14187.5000
2023-04-26T01:08:05.201Z,14182.3574
2023-04-26T01:09:13.263Z,14184.1426
2023-04-26T01:10:21.380Z,14182.6426
2023-04-26T01:11:29.398Z,14182.9287
2023-04-26T01:12:37.390Z,14180.7861
2023-04-26T01:13:45.434Z,14180.0000
2023-04-26T01:14:53.361Z,14184.0000
2023-04-26T01:16:01.415Z,14183.2861
2023-04-26T01:17:09.516Z,14183.2139
2023-04-26T01:18:17.528Z,14182.2139
2023-04-26T01:19:25.772Z,14182.7139
2023-04-26T01:20:33.765Z,14182.5713
2023-04-26T01:21:41.878Z,14184.2139
2023-04-26T01:22:49.982Z,14185.6426
2023-04-26T01:23:57.943Z,14186.4287
2023-04-26T01:25:06.055Z,14186.7861
2023-04-26T01:26:14.259Z,14191.5000
2023-04-26T01:27:22.152Z,14188.7861
2023-04-26T01:28:30.228Z,14189.6426
2023-04-26T01:29:38.327Z,14190.9287
2023-04-26T01:30:46.208Z,14191.0000
2023-04-26T01:31:54.201Z,14192.1426
2023-04-26T01:33:02.290Z,14194.5000
2023-04-26T01:34:10.526Z,14195.5713
2023-04-26T01:35:18.538Z,14194.0713
2023-04-26T01:36:26.695Z,14198.5713
2023-04-26T01:37:34.674Z,14201.2861
2023-04-26T01:38:42.702Z,14203.9287
2023-04-26T01:39:50.827Z,14206.0000
2023-04-26T01:40:58.823Z,14207.7139
2023-04-26T01:42:06.896Z,14205.3574
2023-04-26T01:43:15.070Z,14209.2139
2023-04-26T01:44:23.030Z,14209.0713
2023-04-26T01:45:30.970Z,14210.0713
2023-04-26T01:46:39.132Z,14210.0000
2023-04-26T01:47:47.069Z,14215.0000
2023-04-26T01:48:55.333Z,14216.7139
2023-04-26T01:50:03.302Z,14216.2139
2023-04-26T01:51:11.469Z,14220.7139
2023-04-26T01:52:19.417Z,14225.6426
2023-04-26T01:53:27.567Z,14228.8574
2023-04-26T01:54:35.593Z,14229.7139
2023-04-26T01:55:43.556Z,14233.6426
2023-04-26T01:56:51.682Z,14236.7861
2023-04-26T01:57:59.746Z,14239.7861
2023-04-26T01:59:07.749Z,14244.4287
2023-04-26T02:00:15.681Z,14249.2139
2023-04-26T02:01:23.861Z,14249.4287
2023-04-26T02:02:31.871Z,14251.5000
2023-04-26T02:03:40.047Z,14254.5000
2023-04-26T02:04:48.106Z,14257.1426
2023-04-26T02:05:56.105Z,14258.7139
2023-04-26T02:07:04.155Z,14256.4287
2023-04-26T02:08:12.273Z,14255.5000
2023-04-26T02:09:20.214Z,14251.1426
2023-04-26T02:10:28.326Z,14249.0000
2023-04-26T02:11:36.360Z,14248.1426
2023-04-26T02:12:44.510Z,14243.5000
2023-04-26T02:13:52.538Z,14246.7139
2023-04-26T02:15:00.432Z,14247.7861
2023-04-26T02:16:08.531Z,14246.3574
2023-04-26T02:17:16.544Z,14247.5713
2023-04-26T02:18:24.732Z,14247.2139
2023-04-26T02:19:32.818Z,14248.0713
2023-04-26T02:20:40.967Z,14249.1426
2023-04-26T02:21:48.889Z,14249.5713
2023-04-26T02:22:56.969Z,14251.9287
2023-04-26T02:24:05.028Z,14253.6426
2023-04-26T02:25:13.083Z,14256.4287
2023-04-26T02:26:21.211Z,14254.6426
2023-04-26T02:27:29.161Z,14252.2139
2023-04-26T02:28:37.257Z,14253.5000
2023-04-26T02:29:45.156Z,14252.5000
2023-04-26T02:30:53.268Z,14256.3574
2023-04-26T02:32:01.294Z,14256.3574
2023-04-26T02:33:09.647Z,14261.6426
2023-04-26T02:34:17.530Z,14261.7139
2023-04-26T02:35:25.606Z,14268.4287
2023-04-26T02:36:33.715Z,14267.2139
2023-04-26T02:37:41.734Z,14269.0000
2023-04-26T02:38:50.120Z,14275.1426
2023-04-26T02:39:57.801Z,14277.0713
2023-04-26T02:41:05.901Z,14277.7861
2023-04-26T02:42:13.998Z,14281.1426
2023-04-26T02:43:22.000Z,14285.2861
2023-04-26T02:44:29.912Z,14283.7861
2023-04-26T02:45:37.969Z,14285.2861
2023-04-26T02:46:46.036Z,14283.2861
2023-04-26T02:47:54.286Z,14283.6426
2023-04-26T02:49:02.390Z,14278.5000
2023-04-26T02:50:10.346Z,14272.5713
2023-04-26T02:51:18.395Z,14270.5713
2023-04-26T02:52:26.489Z,14265.0000
2023-04-26T02:53:34.537Z,14265.4287
2023-04-26T02:54:42.667Z,14261.1426
2023-04-26T02:55:50.737Z,14258.0713
2023-04-26T02:56:58.694Z,14253.5000
2023-04-26T02:58:06.815Z,14248.9287
2023-04-26T02:59:14.703Z,14246.1426
2023-04-26T03:00:22.724Z,14243.0713
2023-04-26T03:01:30.899Z,14239.3574
2023-04-26T03:02:39.144Z,14236.2861
2023-04-26T03:03:47.186Z,14233.2861
2023-04-26T03:04:55.369Z,14230.3574
2023-04-26T03:06:03.256Z,14227.2139
2023-04-26T03:07:11.306Z,14224.6426
2023-04-26T03:08:19.361Z,14223.7139
2023-04-26T03:09:27.414Z,14221.2139
2023-04-26T03:10:35.525Z,14219.7861
2023-04-26T03:11:43.545Z,14223.9287
2023-04-26T03:12:51.712Z,14219.1426
2023-04-26T03:13:59.499Z,14218.0713
2023-04-26T03:15:07.624Z,14214.2139
2023-04-26T03:16:15.737Z,14207.8574
2023-04-26T03:17:23.866Z,14206.9287
2023-04-26T03:18:31.887Z,14201.9287
2023-04-26T03:19:39.928Z,14199.5000
2023-04-26T03:20:48.131Z,14201.1426
2023-04-26T03:21:56.158Z,14201.8574
2023-04-26T03:23:04.097Z,14198.1426
2023-04-26T03:24:12.219Z,14199.3574
2023-04-26T03:25:20.331Z,14202.5000
2023-04-26T03:26:28.265Z,14203.5000
2023-04-26T03:27:36.426Z,14204.0000
2023-04-26T03:28:44.273Z,14202.3574
2023-04-26T03:29:52.328Z,14200.5000
2023-04-26T03:31:00.382Z,14198.8574
2023-04-26T03:32:08.638Z,14198.4287
2023-04-26T03:33:16.646Z,14197.7139
2023-04-26T03:34:24.713Z,14201.6426
2023-04-26T03:35:32.738Z,14204.4287
2023-04-26T03:36:40.933Z,14206.4287
2023-04-26T03:37:48.857Z,14201.4287
2023-04-26T03:38:56.989Z,14199.0713
2023-04-26T03:40:04.939Z,14197.3574
2023-04-26T03:41:13.034Z,14196.2861
2023-04-26T03:42:21.071Z,14192.9287
2023-04-26T03:43:28.990Z,14191.7139
2023-04-26T03:44:37.102Z,14191.5000
2023-04-26T03:45:45.120Z,14190.5713
2023-04-26T03:46:53.285Z,14189.3574
2023-04-26T03:48:01.397Z,14190.5713
2023-04-26T03:49:09.386Z,14192.2139
2023-04-26T03:50:17.514Z,14194.7139
2023-04-26T03:51:25.521Z,14197.2861
2023-04-26T03:52:33.691Z,14200.5713
2023-04-26T03:53:41.632Z,14205.5713
2023-04-26T03:54:49.701Z,14211.1426
2023-04-26T03:55:57.843Z,14213.4287
2023-04-26T03:57:05.806Z,14216.3574
2023-04-26T03:58:13.725Z,14218.3574
2023-04-26T03:59:21.774Z,14219.0713
2023-04-26T04:00:29.829Z,14221.8574
2023-04-26T04:01:38.055Z,14225.5713
2023-04-26T04:02:46.113Z,14230.5000
2023-04-26T04:03:54.246Z,14233.2139
2023-04-26T04:05:02.172Z,14231.4287
2023-04-26T04:06:10.237Z,14227.9287
2023-04-26T04:07:18.284Z,14229.5000
2023-04-26T04:08:26.466Z,14225.0713
2023-04-26T04:09:34.409Z,14229.1426
2023-04-26T04:10:42.423Z,14222.5713
2023-04-26T04:11:50.513Z,14221.1426
2023-04-26T04:12:58.483Z,14220.5000
2023-04-26T04:14:06.484Z,14219.2861
2023-04-26T04:15:14.543Z,14214.9287
2023-04-26T04:16:22.873Z,14215.4287
2023-04-26T04:17:30.769Z,14216.2139
2023-04-26T04:18:38.868Z,14213.6426
2023-04-26T04:19:46.887Z,14214.9287
2023-04-26T04:20:54.941Z,14212.2139
2023-04-26T04:22:02.994Z,14212.4287
2023-04-26T04:23:11.133Z,14208.1426
2023-04-26T04:24:19.142Z,14207.2139
2023-04-26T04:25:27.512Z,14206.6426
2023-04-26T04:26:35.098Z,14204.4287
2023-04-26T04:27:43.171Z,14203.5000
2023-04-26T04:28:51.347Z,14201.9287
2023-04-26T04:29:59.488Z,14195.3574
2023-04-26T04:31:07.640Z,14193.3574
2023-04-26T04:32:15.481Z,14189.8574
2023-04-26T04:33:23.668Z,14186.1426
2023-04-26T04:34:31.595Z,14181.5713
2023-04-26T04:35:39.674Z,14179.5713
2023-04-26T04:36:47.729Z,14178.7139
2023-04-26T04:37:55.939Z,14178.2861
2023-04-26T04:39:03.857Z,14178.1426
2023-04-26T04:40:12.126Z,14180.5713
2023-04-26T04:41:19.872Z,14177.5000
2023-04-26T04:42:27.905Z,14177.0000
2023-04-26T04:43:36.154Z,14175.2139
2023-04-26T04:44:44.128Z,14175.2861
2023-04-26T04:45:52.310Z,14167.9287
2023-04-26T04:47:00.388Z,14168.5000
2023-04-26T04:48:08.369Z,14167.3574
2023-04-26T04:49:16.513Z,14167.5000
2023-04-26T04:50:24.432Z,14165.8574
2023-04-26T04:51:32.495Z,14164.9287
2023-04-26T04:52:40.586Z,14164.0713
2023-04-26T04:53:48.569Z,14160.7139
2023-04-26T04:54:56.795Z,14158.9287
2023-04-26T04:56:04.557Z,14157.3574
2023-04-26T04:57:12.626Z,14156.7861
2023-04-26T04:58:20.706Z,14153.6426
2023-04-26T04:59:28.809Z,14154.6426
2023-04-26T05:00:36.895Z,14152.6426
2023-04-26T05:01:45.140Z,14148.6426
2023-04-26T05:02:53.164Z,14149.1426
2023-04-26T05:04:01.277Z,14149.5713
2023-04-26T05:05:09.392Z,14152.0000
2023-04-26T05:06:17.168Z,14152.0000
2023-04-26T05:07:26.362Z,14150.5713
2023-04-26T05:08:38.179Z,14151.0000
2023-04-26T05:09:46.108Z,14151.2139
2023-04-26T05:10:54.148Z,14152.3574
2023-04-26T05:12:02.219Z,14153.0000
2023-04-26T05:13:10.458Z,14152.9287
2023-04-26T05:14:18.575Z,14152.2861
2023-04-26T05:15:26.564Z,14150.9287
2023-04-26T05:16:34.688Z,14153.7861
2023-04-26T05:17:42.631Z,14153.0000
2023-04-26T05:18:50.695Z,14152.8574
2023-04-26T05:19:58.893Z,14154.4287
2023-04-26T05:21:06.807Z,14150.6426
2023-04-26T05:22:14.812Z,14147.6426
2023-04-26T05:23:22.930Z,14149.6426
2023-04-26T05:24:30.829Z,14150.7139
2023-04-26T05:25:38.900Z,14151.1426
2023-04-26T05:26:46.987Z,14153.0713
2023-04-26T05:27:55.124Z,14154.1426
2023-04-26T05:29:03.427Z,14149.7139
2023-04-26T05:30:11.274Z,14150.0000
2023-04-26T05:31:19.340Z,14150.0000
2023-04-26T05:32:27.414Z,14154.5713
2023-04-26T05:33:35.428Z,14150.6426
2023-04-26T05:34:43.471Z,14150.8574
2023-04-26T05:35:51.500Z,14149.0713
2023-04-26T05:36:59.776Z,14152.9287
2023-04-26T05:38:07.645Z,14152.2139
2023-04-26T05:39:15.562Z,14149.7139
2023-04-26T05:40:23.611Z,14146.1426
2023-04-26T05:41:31.692Z,14143.2139
2023-04-26T05:42:39.894Z,14139.9287
2023-04-26T05:43:48.019Z,14140.5713
2023-04-26T05:44:56.003Z,14139.8574
2023-04-26T05:46:04.083Z,14139.3574
2023-04-26T05:47:12.037Z,14139.7139
2023-04-26T05:48:20.113Z,14137.8574
2023-04-26T05:49:28.200Z,14139.2861
2023-04-26T05:50:37.690Z,14136.5713
2023-04-26T05:51:49.146Z,14135.4668
2023-04-26T05:52:57.112Z,14136.5000
2023-04-26T05:54:05.180Z,14134.8574
2023-04-26T05:55:13.346Z,14132.5713
2023-04-26T05:56:21.408Z,14130.7861
2023-04-26T05:57:29.539Z,14135.4287
2023-04-26T05:58:37.507Z,14136.7861
2023-04-26T05:59:45.558Z,14133.5000
2023-04-26T06:00:53.775Z,14130.3574
2023-04-26T06:02:01.764Z,14132.0000
2023-04-26T06:03:10.093Z,14131.7139
2023-04-26T06:04:17.918Z,14133.4287
2023-04-26T06:05:26.040Z,14131.2139
2023-04-26T06:06:33.998Z,14133.6426
2023-04-26T06:07:41.861Z,14131.2861
2023-04-26T06:08:49.906Z,14132.9287
2023-04-26T06:09:57.982Z,14132.8574
2023-04-26T06:11:06.206Z,14135.4287
2023-04-26T06:12:14.256Z,14139.2139
2023-04-26T06:13:22.321Z,14141.9287
2023-04-26T06:14:30.952Z,14145.2861
2023-04-26T06:15:38.386Z,14146.9287
2023-04-26T06:16:46.699Z,14146.7139
2023-04-26T06:17:54.606Z,14142.4287
2023-04-26T06:19:02.549Z,14141.9287
2023-04-26T06:20:10.608Z,14139.1426
2023-04-26T06:21:18.683Z,14140.8574
2023-04-26T06:22:26.607Z,14136.1426
2023-04-26T06:23:34.722Z,14137.1426
2023-04-26T06:24:42.746Z,14135.5713
2023-04-26T06:25:51.002Z,14138.0000
2023-04-26T06:26:58.894Z,14132.0000
2023-04-26T06:28:07.012Z,14131.0713
2023-04-26T06:29:15.048Z,14131.5000
2023-04-26T06:30:23.111Z,14129.3574
2023-04-26T06:31:31.282Z,14125.8574
2023-04-26T06:32:39.259Z,14124.4287
2023-04-26T06:33:47.286Z,14120.1426
2023-04-26T06:34:55.400Z,14118.7139
2023-04-26T06:36:03.359Z,14117.2139
2023-04-26T06:37:11.334Z,14117.8574
2023-04-26T06:38:19.355Z,14119.0713
2023-04-26T06:39:27.412Z,14116.7139
2023-04-26T06:40:35.665Z,14116.6426
2023-04-26T06:41:43.795Z,14119.0000
2023-04-26T06:42:51.700Z,14119.7139
2023-04-26T06:43:59.746Z,14121.0000
2023-04-26T06:45:07.827Z,14117.7139
2023-04-26T06:46:15.973Z,14118.4287
2023-04-26T06:47:23.988Z,14117.5713
2023-04-26T06:48:32.133Z,14120.0713
2023-04-26T06:49:40.055Z,14122.2139
2023-04-26T06:50:48.133Z,14124.8574
2023-04-26T06:51:56.127Z,14120.9287
2023-04-26T06:53:04.111Z,14117.3574
2023-04-26T06:54:12.148Z,14117.7861
2023-04-26T06:55:20.417Z,14117.5000
2023-04-26T06:56:28.379Z,14113.0000
2023-04-26T06:57:36.639Z,14113.6426
2023-04-26T06:58:44.547Z,14111.7861
2023-04-26T06:59:52.535Z,14110.8574
2023-04-26T07:01:00.620Z,14107.2139
2023-04-26T07:02:08.902Z,14105.8574
2023-04-26T07:03:16.887Z,14104.5000
2023-04-26T07:04:24.920Z,14105.2139
2023-04-26T07:05:32.731Z,14104.4287
2023-04-26T07:06:40.768Z,14104.5000
2023-04-26T07:07:48.845Z,14105.4287
2023-04-26T07:08:57.440Z,14104.1426
2023-04-26T07:10:05.043Z,14101.2139
2023-04-26T07:11:13.252Z,14097.7139
2023-04-26T07:12:21.251Z,14097.5713
2023-04-26T07:13:29.336Z,14095.5713
2023-04-26T07:14:39.495Z,14094.3574
2023-04-26T07:15:50.308Z,14092.6670
2023-04-26T07:16:58.336Z,14094.5000
2023-04-26T07:18:06.450Z,14095.8574
2023-04-26T07:19:14.290Z,14099.7861
2023-04-26T07:20:22.383Z,14097.2861
2023-04-26T07:21:30.396Z,14100.0713
2023-04-26T07:22:38.593Z,14099.4287
2023-04-26T07:23:46.658Z,14098.9287
2023-04-26T07:24:54.690Z,14096.6426
2023-04-26T07:26:02.799Z,14099.2861
2023-04-26T07:27:10.826Z,14097.7861
2023-04-26T07:28:18.798Z,14095.7861
2023-04-26T07:29:27.190Z,14097.4287
2023-04-26T07:30:34.981Z,14096.8574
2023-04-26T07:31:43.084Z,14099.4287
2023-04-26T07:32:51.183Z,14097.5000
2023-04-26T07:33:59.004Z,14098.7139
2023-04-26T07:35:07.049Z,14096.2861
2023-04-26T07:36:15.123Z,14094.8574
2023-04-26T07:37:23.477Z,14097.6426
2023-04-26T07:38:31.347Z,14097.0713
2023-04-26T07:39:39.401Z,14099.7861
2023-04-26T07:40:47.458Z,14100.5000
2023-04-26T07:41:55.542Z,14098.7139
2023-04-26T07:43:03.618Z,14098.5000
2023-04-26T07:44:11.724Z,14095.3574
2023-04-26T07:45:19.619Z,14092.5713
2023-04-26T07:46:27.793Z,14086.4287
2023-04-26T07:47:35.824Z,14085.0000
2023-04-26T07:48:43.756Z,14084.7139
2023-04-26T07:49:51.763Z,14086.3574
2023-04-26T07:50:59.831Z,14088.9287
2023-04-26T07:52:08.092Z,14090.0713
2023-04-26T07:53:16.196Z,14090.8574
2023-04-26T07:54:24.156Z,14091.7139
2023-04-26T07:55:32.165Z,14091.7861
2023-04-26T07:56:40.240Z,14095.0000
2023-04-26T07:57:48.283Z,14089.7139
2023-04-26T07:58:56.569Z,14086.4287
2023-04-26T08:00:04.594Z,14086.7139
2023-04-26T08:01:12.447Z,14086.7139
2023-04-26T08:02:27.107Z,14084.8574
2023-04-26T08:03:33.532Z,14086.8662
2023-04-26T08:04:41.588Z,14084.3574
2023-04-26T08:05:49.600Z,14082.6426
2023-04-26T08:06:57.673Z,14080.8574
2023-04-26T08:08:05.668Z,14080.0713
2023-04-26T08:09:14.192Z,14083.4287
2023-04-26T08:10:21.804Z,14086.7139
2023-04-26T08:11:29.893Z,14088.0713
2023-04-26T08:12:37.872Z,14090.3574
2023-04-26T08:13:45.989Z,14089.6426
2023-04-26T08:14:53.986Z,14088.8574
2023-04-26T08:16:02.034Z,14088.7861
2023-04-26T08:17:10.400Z,14085.2861
2023-04-26T08:18:18.087Z,14077.3574
2023-04-26T08:19:26.071Z,14072.8574
2023-04-26T08:20:34.099Z,14065.5713
2023-04-26T08:21:42.324Z,14062.7861
2023-04-26T08:22:50.413Z,14060.0000
2023-04-26T08:23:58.491Z,14055.4287
2023-04-26T08:25:06.596Z,14052.2861
2023-04-26T08:26:14.792Z,14050.5713
2023-04-26T08:27:22.587Z,14047.2139
2023-04-26T08:28:30.619Z,14044.0000
2023-04-26T08:29:38.683Z,14046.2139
2023-04-26T08:30:46.818Z,14045.6426
2023-04-26T08:31:54.729Z,14045.0000
2023-04-26T08:33:02.727Z,14043.7139
2023-04-26T08:34:10.881Z,14043.4287
2023-04-26T08:35:18.805Z,14050.0713
2023-04-26T08:36:26.981Z,14052.6426
2023-04-26T08:37:35.086Z,14055.7861
2023-04-26T08:38:43.093Z,14056.2139
2023-04-26T08:39:51.177Z,14059.0713
2023-04-26T08:40:59.394Z,14055.7861
2023-04-26T08:42:07.249Z,14053.7861
2023-04-26T08:43:15.326Z,14052.6426
2023-04-26T08:44:23.443Z,14051.3574
2023-04-26T08:45:31.505Z,14048.1426
2023-04-26T08:46:39.570Z,14046.2139
2023-04-26T08:47:47.451Z,14041.3574
2023-04-26T08:48:55.455Z,14041.5000
2023-04-26T08:50:03.520Z,14041.8574
2023-04-26T08:51:11.705Z,14044.5713
2023-04-26T08:52:19.903Z,14050.0713
2023-04-26T08:53:27.752Z,14053.7139
2023-04-26T08:54:35.811Z,14059.3574
2023-04-26T08:55:43.864Z,14060.5713
2023-04-26T08:56:52.061Z,14067.8574
2023-04-26T08:57:59.950Z,14068.9287
2023-04-26T08:59:07.958Z,14071.0713
2023-04-26T09:00:16.070Z,14072.2861
2023-04-26T09:01:24.107Z,14075.3574
2023-04-26T09:02:32.150Z,14073.7139
2023-04-26T09:03:40.226Z,14076.7139
2023-04-26T09:04:48.159Z,14073.5713
2023-04-26T09:05:56.303Z,14077.1426
2023-04-26T09:07:04.370Z,14079.3574
2023-04-26T09:08:12.437Z,14077.9287
2023-04-26T09:09:20.445Z,14079.7139
2023-04-26T09:10:28.517Z,14082.4287
2023-04-26T09:11:36.542Z,14081.1426
2023-04-26T09:12:44.730Z,14080.5713
2023-04-26T09:13:52.911Z,14078.5713
2023-04-26T09:15:00.830Z,14075.5713
2023-04-26T09:16:08.779Z,14071.5000
2023-04-26T09:17:16.651Z,14067.7139
2023-04-26T09:18:24.710Z,14059.1426
2023-04-26T09:19:32.794Z,14056.7139
2023-04-26T09:20:41.035Z,14050.5713
2023-04-26T09:21:49.006Z,14044.5000
2023-04-26T09:22:57.031Z,14039.7861
2023-04-26T09:24:05.153Z,14035.9287
2023-04-26T09:25:13.180Z,14032.1426
2023-04-26T09:26:21.164Z,14029.5000
2023-04-26T09:27:29.295Z,14024.4287
2023-04-26T09:28:37.208Z,14022.4287
2023-04-26T09:29:45.357Z,14019.2139
2023-04-26T09:30:53.519Z,14014.4287
2023-04-26T09:32:01.512Z,14011.6426
2023-04-26T09:33:09.568Z,14010.2861
2023-04-26T09:34:17.474Z,14005.7861
2023-04-26T09:35:25.572Z,14003.5713
2023-04-26T09:36:33.683Z,13999.2139
2023-04-26T09:37:54.346Z,13997.6426
2023-04-26T09:38:54.634Z,13995.5332
2023-04-26T09:40:02.759Z,13991.0713
2023-04-26T09:41:10.761Z,13990.3574
2023-04-26T09:42:18.902Z,13990.0713
2023-04-26T09:43:26.877Z,13991.6426
2023-04-26T09:44:34.952Z,13991.0713
2023-04-26T09:45:42.868Z,13989.1426
2023-04-26T09:46:50.962Z,13986.2861
2023-04-26T09:47:59.030Z,13988.1426
2023-04-26T09:49:07.264Z,13986.7139
2023-04-26T09:50:15.197Z,13984.7861
2023-04-26T09:51:23.280Z,13984.4287
2023-04-26T09:52:31.287Z,13987.7861
2023-04-26T09:53:39.410Z,13985.5000
2023-04-26T09:54:47.427Z,13984.5713
2023-04-26T09:55:55.468Z,13985.1426
2023-04-26T09:57:03.477Z,13984.8574
2023-04-26T09:58:11.475Z,13984.2139
2023-04-26T09:59:19.667Z,13985.7139
2023-04-26T10:00:27.539Z,13987.5713
2023-04-26T10:01:35.723Z,13989.1426
2023-04-26T10:02:43.760Z,13994.5713
2023-04-26T10:03:51.989Z,13995.0000
2023-04-26T10:05:00.203Z,13997.1426
2023-04-26T10:06:07.936Z,13997.0000
2023-04-26T10:07:16.016Z,13997.7139
2023-04-26T10:08:24.019Z,13997.4287
2023-04-26T10:09:32.102Z,13998.0000
2023-04-26T10:10:40.301Z,13999.3574
2023-04-26T10:11:48.187Z,13998.4287
2023-04-26T10:12:56.248Z,13993.5000
2023-04-26T10:14:04.514Z,13993.0713
2023-04-26T10:15:12.238Z,13990.6426
2023-04-26T10:16:20.355Z,13982.7861
2023-04-26T10:17:28.337Z,13968.9287
2023-04-26T10:18:36.550Z,13949.7861
2023-04-26T10:19:44.561Z,13931.1426
2023-04-26T10:20:52.625Z,13919.7861
2023-04-26T10:22:00.843Z,13914.7861
2023-04-26T10:23:08.697Z,13904.2139
2023-04-26T10:24:16.780Z,13892.4287
2023-04-26T10:25:25.029Z,13877.0000
2023-04-26T10:26:32.885Z,13866.7861
2023-04-26T10:27:41.070Z,13853.0713
2023-04-26T10:28:49.791Z,13831.7139
2023-04-26T10:30:01.764Z,13815.0000
2023-04-26T10:31:09.826Z,13811.6426
2023-04-26T10:32:17.929Z,13805.6426
2023-04-26T10:33:26.122Z,13803.0713
2023-04-26T10:34:34.102Z,13800.7861
2023-04-26T10:35:42.165Z,13804.6426
2023-04-26T10:36:50.258Z,13807.0000
2023-04-26T10:37:58.300Z,13804.3574
2023-04-26T10:39:06.403Z,13812.7861
2023-04-26T10:40:14.401Z,13818.6426
2023-04-26T10:41:22.508Z,13826.2861
2023-04-26T10:42:30.495Z,13828.1426
2023-04-26T10:43:38.547Z,13832.5000
2023-04-26T10:44:46.501Z,13841.3574
2023-04-26T10:45:54.529Z,13839.3574
2023-04-26T10:47:02.621Z,13843.2861
2023-04-26T10:48:10.874Z,13849.9287
2023-04-26T10:49:18.825Z,13856.2861
2023-04-26T10:50:27.029Z,13866.2861
2023-04-26T10:51:34.965Z,13875.5713
2023-04-26T10:52:42.985Z,13883.7861
2023-04-26T10:53:51.247Z,13880.5713
2023-04-26T10:54:59.152Z,13887.0713
2023-04-26T10:56:07.154Z,13894.2139
2023-04-26T10:57:15.270Z,13901.2139
2023-04-26T10:58:23.376Z,13900.7139
2023-04-26T10:59:43.543Z,13900.3574
2023-04-26T11:00:44.108Z,13898.8662
2023-04-26T11:01:52.408Z,13896.1426
2023-04-26T11:03:00.393Z,13896.2861
2023-04-26T11:04:08.586Z,13896.4287
2023-04-26T11:05:16.495Z,13893.2139
2023-04-26T11:06:24.502Z,13902.5000
2023-04-26T11:07:32.689Z,13898.8574
2023-04-26T11:08:40.616Z,13897.3574
2023-04-26T11:09:48.690Z,13895.5000
2023-04-26T11:10:56.720Z,13910.7139
2023-04-26T11:12:04.872Z,13922.8574
2023-04-26T11:13:12.794Z,13938.2861
2023-04-26T11:14:20.759Z,13940.3574
2023-04-26T11:15:28.830Z,13940.0000
2023-04-26T11:16:37.100Z,13943.4287
2023-04-26T11:17:45.088Z,13947.9287
2023-04-26T11:18:53.377Z,13951.8574
2023-04-26T11:20:01.176Z,13949.5713
2023-04-26T11:21:09.453Z,13943.7139
2023-04-26T11:22:17.350Z,13931.8574
2023-04-26T11:23:25.572Z,13920.2139
2023-04-26T11:24:33.552Z,13919.7861
2023-04-26T11:25:41.661Z,13911.4287
2023-04-26T11:26:49.568Z,13912.8574
2023-04-26T11:27:57.515Z,13919.5000
2023-04-26T11:29:05.583Z,13922.4287
2023-04-26T11:30:13.678Z,13922.6426
2023-04-26T11:31:21.839Z,13921.5713
2023-04-26T11:32:29.853Z,13923.5713
2023-04-26T11:33:38.005Z,13928.0713
2023-04-26T11:34:45.975Z,13938.0000
2023-04-26T11:35:54.103Z,13956.0000
2023-04-26T11:37:02.144Z,13964.3574
2023-04-26T11:38:10.140Z,13961.0000
2023-04-26T11:39:18.177Z,13963.6426
2023-04-26T11:40:26.387Z,13955.7139
2023-04-26T11:41:34.310Z,13946.3574
2023-04-26T11:42:42.273Z,13941.8574
2023-04-26T11:43:50.332Z,13939.1426
2023-04-26T11:44:58.443Z,13939.6426
2023-04-26T11:46:06.532Z,13943.6426
2023-04-26T11:47:14.665Z,13943.7861
2023-04-26T11:48:22.720Z,13944.8574
2023-04-26T11:49:30.699Z,13952.6426
2023-04-26T11:50:38.749Z,13955.5713
2023-04-26T11:51:46.817Z,13954.2139
2023-04-26T11:52:54.907Z,13956.8574
2023-04-26T11:54:02.907Z,13957.2861
2023-04-26T11:55:11.115Z,13953.4287
2023-04-26T11:56:19.056Z,13954.1426
2023-04-26T11:57:26.943Z,13957.0713
2023-04-26T11:58:35.038Z,13958.2861
2023-04-26T11:59:43.065Z,13958.1426
2023-04-26T12:00:51.245Z,13962.6426
2023-04-26T12:01:59.325Z,13971.2861
2023-04-26T12:03:07.600Z,13971.2861
2023-04-26T12:04:15.697Z,13976.2861
2023-04-26T12:05:23.520Z,13975.2139
2023-04-26T12:06:31.502Z,13978.2139
2023-04-26T12:07:39.531Z,13979.7861
2023-04-26T12:08:47.608Z,13995.5000
2023-04-26T12:09:55.681Z,14018.7139
2023-04-26T12:11:03.664Z,14032.0713
2023-04-26T12:12:11.716Z,14031.7861
2023-04-26T12:13:19.700Z,14031.8574
2023-04-26T12:14:27.775Z,14027.6426
2023-04-26T12:15:35.987Z,14018.5000
2023-04-26T12:16:43.950Z,14009.7139
2023-04-26T12:17:52.063Z,14015.7139
2023-04-26T12:19:00.095Z,14033.5000
2023-04-26T12:20:08.216Z,14041.3574
2023-04-26T12:21:16.230Z,14049.4287
2023-04-26T12:22:24.246Z,14055.9287
2023-04-26T12:23:32.301Z,14049.2139
2023-04-26T12:24:40.357Z,14037.8574
2023-04-26T12:25:48.464Z,14035.4287
2023-04-26T12:26:56.414Z,14034.5713
2023-04-26T12:28:04.458Z,14028.8574
2023-04-26T12:29:12.508Z,14022.7861
2023-04-26T12:30:20.674Z,14018.5000
2023-04-26T12:31:28.740Z,14023.5000
2023-04-26T12:32:36.816Z,14027.9287
2023-04-26T12:33:44.844Z,14029.5000
2023-04-26T12:34:53.065Z,14034.5000